sensor_id;sensor_type;location;lat;lon;timestamp;pressure;altitude;pressure_sealevel;temperature;humidity
34081;BME280;20358;50.272;19.026;2023-02-13T00:00:10;100207.47;;;1.09;67.93
34081;BME280;20358;50.272;19.026;2023-02-13T00:03:19;100218.69;;;1.22;68.16
34081;BME280;20358;50.272;19.026;2023-02-13T00:06:24;100226.44;;;1.28;67.57
34081;BME280;20358;50.272;19.026;2023-02-13T00:09:34;100215.13;;;1.34;68.16
34081;BME280;20358;50.272;19.026;2023-02-13T00:12:40;100222.00;;;1.41;67.42
34081;BME280;20358;50.272;19.026;2023-02-13T00:15:54;100211.59;;;1.42;67.21
34081;BME280;20358;50.272;19.026;2023-02-13T00:19:00;100212.44;;;1.41;67.18
34081;BME280;20358;50.272;19.026;2023-02-13T00:22:06;100217.69;;;1.35;67.53
34081;BME280;20358;50.272;19.026;2023-02-13T00:25:15;100217.69;;;1.38;67.11
34081;BME280;20358;50.272;19.026;2023-02-13T00:28:21;100209.88;;;1.37;68.32
34081;BME280;20358;50.272;19.026;2023-02-13T00:31:27;100224.69;;;1.30;68.28
34081;BME280;20358;50.272;19.026;2023-02-13T00:34:34;100222.97;;;1.26;68.07
34081;BME280;20358;50.272;19.026;2023-02-13T00:37:40;100214.34;;;1.21;68.28
34081;BME280;20358;50.272;19.026;2023-02-13T00:40:49;100223.00;;;1.23;68.64
34081;BME280;20358;50.272;19.026;2023-02-13T00:43:54;100216.94;;;1.24;67.88
34081;BME280;20358;50.272;19.026;2023-02-13T00:47:01;100217.81;;;1.20;69.10
34081;BME280;20358;50.272;19.026;2023-02-13T00:50:07;100218.69;;;1.22;68.41
34081;BME280;20358;50.272;19.026;2023-02-13T00:53:13;100216.03;;;1.25;68.17
34081;BME280;20358;50.272;19.026;2023-02-13T00:56:23;100216.03;;;1.28;68.79
34081;BME280;20358;50.272;19.026;2023-02-13T00:59:29;100207.34;;;1.29;68.96
34081;BME280;20358;50.272;19.026;2023-02-13T01:02:35;100209.03;;;1.36;68.23
34081;BME280;20358;50.272;19.026;2023-02-13T01:05:42;100214.19;;;1.42;68.57
34081;BME280;20358;50.272;19.026;2023-02-13T01:08:48;100211.59;;;1.42;67.08
34081;BME280;20358;50.272;19.026;2023-02-13T01:11:58;100207.22;;;1.44;67.88
34081;BME280;20358;50.272;19.026;2023-02-13T01:15:06;100201.16;;;1.42;68.00
34081;BME280;20358;50.272;19.026;2023-02-13T01:18:17;100198.56;;;1.42;67.57
34081;BME280;20358;50.272;19.026;2023-02-13T01:21:24;100194.19;;;1.47;67.68
34081;BME280;20358;50.272;19.026;2023-02-13T01:24:30;100189.84;;;1.46;68.88
34081;BME280;20358;50.272;19.026;2023-02-13T01:27:39;100186.41;;;1.44;68.38
34081;BME280;20358;50.272;19.026;2023-02-13T01:30:51;100187.28;;;1.42;68.32
34081;BME280;20358;50.272;19.026;2023-02-13T01:33:58;100177.75;;;1.39;68.08
34081;BME280;20358;50.272;19.026;2023-02-13T01:37:05;100179.53;;;1.34;68.18
34081;BME280;20358;50.272;19.026;2023-02-13T01:40:12;100170.03;;;1.32;68.71
34081;BME280;20358;50.272;19.026;2023-02-13T01:43:21;100175.19;;;1.33;69.43
34081;BME280;20358;50.272;19.026;2023-02-13T01:46:32;100179.50;;;1.36;69.55
34081;BME280;20358;50.272;19.026;2023-02-13T01:49:45;100168.25;;;1.34;68.65
34081;BME280;20358;50.272;19.026;2023-02-13T01:52:56;100174.41;;;1.25;69.79
34081;BME280;20358;50.272;19.026;2023-02-13T01:56:14;100167.50;;;1.21;70.08
34081;BME280;20358;50.272;19.026;2023-02-13T01:59:33;100164.09;;;1.13;70.09
34081;BME280;20358;50.272;19.026;2023-02-13T02:02:52;100168.50;;;0.99;70.52
34081;BME280;20358;50.272;19.026;2023-02-13T02:06:04;100166.78;;;0.99;70.91
34081;BME280;20358;50.272;19.026;2023-02-13T02:09:19;100168.53;;;0.97;71.42
34081;BME280;20358;50.272;19.026;2023-02-13T02:12:35;100167.72;;;0.92;71.07
34081;BME280;20358;50.272;19.026;2023-02-13T02:15:49;100161.72;;;0.78;72.08
34081;BME280;20358;50.272;19.026;2023-02-13T02:18:56;100166.94;;;0.77;72.88
34081;BME280;20358;50.272;19.026;2023-02-13T02:26:25;100168.75;;;0.67;73.00
34081;BME280;20358;50.272;19.026;2023-02-13T02:30:25;100160.94;;;0.69;72.15
34081;BME280;20358;50.272;19.026;2023-02-13T02:34:10;100148.00;;;0.53;73.38
34081;BME280;20358;50.272;19.026;2023-02-13T02:37:44;100153.25;;;0.49;73.61
34081;BME280;20358;50.272;19.026;2023-02-13T02:41:10;100153.25;;;0.47;73.39
34081;BME280;20358;50.272;19.026;2023-02-13T02:44:55;100144.63;;;0.44;74.07
34081;BME280;20358;50.272;19.026;2023-02-13T02:48:15;100150.69;;;0.38;73.55
34081;BME280;20358;50.272;19.026;2023-02-13T02:51:59;100123.06;;;0.19;74.11
34081;BME280;20358;50.272;19.026;2023-02-13T02:55:19;100148.97;;;0.37;74.53
34081;BME280;20358;50.272;19.026;2023-02-13T02:58:40;100152.47;;;0.24;74.61
34081;BME280;20358;50.272;19.026;2023-02-13T03:02:09;100120.50;;;0.13;75.17
34081;BME280;20358;50.272;19.026;2023-02-13T03:05:46;100149.91;;;0.23;75.42
34081;BME280;20358;50.272;19.026;2023-02-13T03:09:30;100155.97;;;0.23;75.10
34081;BME280;20358;50.272;19.026;2023-02-13T03:13:00;100156.88;;;0.06;75.93
34081;BME280;20358;50.272;19.026;2023-02-13T03:16:25;100158.63;;;0.10;75.52
34081;BME280;20358;50.272;19.026;2023-02-13T03:20:07;100154.28;;;0.12;75.38
34081;BME280;20358;50.272;19.026;2023-02-13T03:23:47;100157.75;;;0.08;75.53
34081;BME280;20358;50.272;19.026;2023-02-13T03:27:10;100156.06;;;-0.01;76.46
34081;BME280;20358;50.272;19.026;2023-02-13T03:30:53;100162.13;;;-0.00;76.00
34081;BME280;20358;50.272;19.026;2023-02-13T03:34:05;100156.00;;;0.08;75.51
34081;BME280;20358;50.272;19.026;2023-02-13T03:37:18;100151.69;;;0.13;75.93
34081;BME280;20358;50.272;19.026;2023-02-13T03:40:50;100155.97;;;0.23;75.33
34081;BME280;20358;50.272;19.026;2023-02-13T03:44:27;100149.03;;;0.22;76.07
34081;BME280;20358;50.272;19.026;2023-02-13T03:47:40;100157.69;;;0.21;76.33
34081;BME280;20358;50.272;19.026;2023-02-13T03:50:48;100148.22;;;0.16;76.26
34081;BME280;20358;50.272;19.026;2023-02-13T03:53:55;100149.03;;;0.16;75.56
34081;BME280;20358;50.272;19.026;2023-02-13T03:57:05;100154.22;;;0.22;75.73
34081;BME280;20358;50.272;19.026;2023-02-13T04:00:36;100153.38;;;0.23;76.38
34081;BME280;20358;50.272;19.026;2023-02-13T04:03:51;100155.97;;;0.20;76.28
34081;BME280;20358;50.272;19.026;2023-02-13T04:07:05;100162.03;;;0.22;76.07
34081;BME280;20358;50.272;19.026;2023-02-13T04:10:35;100159.44;;;0.16;76.36
34081;BME280;20358;50.272;19.026;2023-02-13T04:13:54;100162.88;;;0.24;75.42
34081;BME280;20358;50.272;19.026;2023-02-13T04:17:08;100157.66;;;0.32;75.77
34081;BME280;20358;50.272;19.026;2023-02-13T04:20:19;100145.53;;;0.32;75.97
34081;BME280;20358;50.272;19.026;2023-02-13T04:23:24;100154.22;;;0.28;76.07
34081;BME280;20358;50.272;19.026;2023-02-13T04:26:34;100154.22;;;0.28;75.69
34081;BME280;20358;50.272;19.026;2023-02-13T04:29:42;100149.88;;;0.29;76.32
34081;BME280;20358;50.272;19.026;2023-02-13T04:32:51;100152.44;;;0.36;76.52
34081;BME280;20358;50.272;19.026;2023-02-13T04:35:56;100144.66;;;0.33;75.88
34081;BME280;20358;50.272;19.026;2023-02-13T04:39:03;100148.13;;;0.31;75.68
34081;BME280;20358;50.272;19.026;2023-02-13T04:42:08;100148.97;;;0.34;75.81
34081;BME280;20358;50.272;19.026;2023-02-13T04:45:15;100151.56;;;0.37;75.32
34081;BME280;20358;50.272;19.026;2023-02-13T04:48:23;100152.47;;;0.27;75.89
34081;BME280;20358;50.272;19.026;2023-02-13T04:51:30;100149.00;;;0.31;75.90
34081;BME280;20358;50.272;19.026;2023-02-13T04:54:35;100154.19;;;0.30;76.15
34081;BME280;20358;50.272;19.026;2023-02-13T04:57:41;100158.50;;;0.41;76.29
34081;BME280;20358;50.272;19.026;2023-02-13T05:00:47;100157.56;;;0.48;74.94
34081;BME280;20358;50.272;19.026;2023-02-13T05:03:56;100157.56;;;0.54;75.46
34081;BME280;20358;50.272;19.026;2023-02-13T05:07:01;100151.50;;;0.51;74.96
34081;BME280;20358;50.272;19.026;2023-02-13T05:10:09;100154.09;;;0.48;74.86
34081;BME280;20358;50.272;19.026;2023-02-13T05:13:15;100143.72;;;0.49;75.39
34081;BME280;20358;50.272;19.026;2023-02-13T05:16:23;100141.09;;;0.54;75.40
34081;BME280;20358;50.272;19.026;2023-02-13T05:19:31;100147.16;;;0.54;75.03
34081;BME280;20358;50.272;19.026;2023-02-13T05:22:43;100143.69;;;0.52;75.68
34081;BME280;20358;50.272;19.026;2023-02-13T05:26:04;100141.91;;;0.57;74.45
34081;BME280;20358;50.272;19.026;2023-02-13T05:29:10;100146.31;;;0.48;75.25
34081;BME280;20358;50.272;19.026;2023-02-13T05:32:25;100153.25;;;0.46;76.18
34081;BME280;20358;50.272;19.026;2023-02-13T05:35:34;100159.28;;;0.52;75.66
34081;BME280;20358;50.272;19.026;2023-02-13T05:38:39;100158.41;;;0.60;75.58
34081;BME280;20358;50.272;19.026;2023-02-13T05:41:46;100160.09;;;0.64;75.70
34081;BME280;20358;50.272;19.026;2023-02-13T05:44:53;100160.06;;;0.68;75.44
34081;BME280;20358;50.272;19.026;2023-02-13T05:47:59;100145.31;;;0.69;75.33
34081;BME280;20358;50.272;19.026;2023-02-13T05:51:07;100147.00;;;0.76;74.18
34081;BME280;20358;50.272;19.026;2023-02-13T05:54:14;100148.75;;;0.77;74.44
34081;BME280;20358;50.272;19.026;2023-02-13T05:57:19;100150.47;;;0.78;74.97
34081;BME280;20358;50.272;19.026;2023-02-13T06:00:26;100153.94;;;0.80;75.06
34081;BME280;20358;50.272;19.026;2023-02-13T06:03:32;100151.28;;;0.86;74.86
34081;BME280;20358;50.272;19.026;2023-02-13T06:06:42;100155.63;;;0.84;74.08
34081;BME280;20358;50.272;19.026;2023-02-13T06:09:47;100159.97;;;0.85;74.41
34081;BME280;20358;50.272;19.026;2023-02-13T06:12:53;100151.31;;;0.81;74.67
34081;BME280;20358;50.272;19.026;2023-02-13T06:15:59;100167.72;;;0.91;73.51
34081;BME280;20358;50.272;19.026;2023-02-13T06:19:06;100173.78;;;0.91;73.08
34081;BME280;20358;50.272;19.026;2023-02-13T06:22:14;100178.16;;;0.88;74.73
34081;BME280;20358;50.272;19.026;2023-02-13T06:25:21;100172.97;;;0.85;74.14
34081;BME280;20358;50.272;19.026;2023-02-13T06:28:27;100172.94;;;0.91;74.21
34081;BME280;20358;50.272;19.026;2023-02-13T06:31:33;100175.53;;;0.86;73.19
34081;BME280;20358;50.272;19.026;2023-02-13T06:34:39;100173.84;;;0.85;73.40
34081;BME280;20358;50.272;19.026;2023-02-13T06:37:48;100173.06;;;0.73;73.65
34081;BME280;20358;50.272;19.026;2023-02-13T06:40:58;100172.16;;;0.74;73.45
34081;BME280;20358;50.272;19.026;2023-02-13T06:44:06;100173.00;;;0.76;74.62
34081;BME280;20358;50.272;19.026;2023-02-13T06:47:12;100173.88;;;0.76;73.69
34081;BME280;20358;50.272;19.026;2023-02-13T06:50:18;100169.56;;;0.71;73.65
34081;BME280;20358;50.272;19.026;2023-02-13T06:53:26;100165.25;;;0.71;73.97
34081;BME280;20358;50.272;19.026;2023-02-13T06:56:33;100162.69;;;0.61;73.24
34081;BME280;20358;50.272;19.026;2023-02-13T06:59:38;100181.72;;;0.66;73.16
34081;BME280;20358;50.272;19.026;2023-02-13T07:02:46;100179.13;;;0.70;72.96
34081;BME280;20358;50.272;19.026;2023-02-13T07:05:52;100180.03;;;0.65;73.83
34081;BME280;20358;50.272;19.026;2023-02-13T07:09:02;100190.38;;;0.74;73.37
34081;BME280;20358;50.272;19.026;2023-02-13T07:12:08;100182.56;;;0.75;73.59
34081;BME280;20358;50.272;19.026;2023-02-13T07:15:14;100178.22;;;0.76;72.78
34081;BME280;20358;50.272;19.026;2023-02-13T07:18:20;100181.63;;;0.87;72.96
34081;BME280;20358;50.272;19.026;2023-02-13T07:21:26;100182.50;;;0.86;72.67
34081;BME280;20358;50.272;19.026;2023-02-13T07:24:35;100178.22;;;0.77;73.45
34081;BME280;20358;50.272;19.026;2023-02-13T07:27:41;100172.94;;;0.88;72.59
34081;BME280;20358;50.272;19.026;2023-02-13T07:30:46;100178.16;;;0.85;72.82
34081;BME280;20358;50.272;19.026;2023-02-13T07:33:58;100176.47;;;0.78;72.37
34081;BME280;20358;50.272;19.026;2023-02-13T07:37:04;100180.78;;;0.83;73.53
34081;BME280;20358;50.272;19.026;2023-02-13T07:40:13;100176.38;;;0.96;73.04
34081;BME280;20358;50.272;19.026;2023-02-13T07:43:19;100175.47;;;1.01;72.22
34081;BME280;20358;50.272;19.026;2023-02-13T07:46:26;100166.66;;;1.16;73.53
34081;BME280;20358;50.272;19.026;2023-02-13T07:49:32;100172.59;;;1.33;71.73
34081;BME280;20358;50.272;19.026;2023-02-13T07:52:39;100167.25;;;1.50;71.61
34081;BME280;20358;50.272;19.026;2023-02-13T07:55:47;100153.34;;;1.52;71.56
34081;BME280;20358;50.272;19.026;2023-02-13T07:58:53;100154.25;;;1.47;71.60
34081;BME280;20358;50.272;19.026;2023-02-13T08:01:59;100163.75;;;1.52;70.47
34081;BME280;20358;50.272;19.026;2023-02-13T08:05:06;100166.28;;;1.60;71.12
34081;BME280;20358;50.272;19.026;2023-02-13T08:08:12;100158.44;;;1.66;71.59
34081;BME280;20358;50.272;19.026;2023-02-13T08:11:30;100158.41;;;1.67;70.60
34081;BME280;20358;50.272;19.026;2023-02-13T08:14:53;100168.69;;;1.81;70.28
34081;BME280;20358;50.272;19.026;2023-02-13T08:17:59;100165.06;;;1.93;70.03
34081;BME280;20358;50.272;19.026;2023-02-13T08:21:05;100171.94;;;2.03;70.20
34081;BME280;20358;50.272;19.026;2023-02-13T08:24:12;100172.81;;;2.03;70.67
34081;BME280;20358;50.272;19.026;2023-02-13T08:27:20;100175.47;;;1.99;70.13
34081;BME280;20358;50.272;19.026;2023-02-13T08:30:27;100178.88;;;2.07;70.01
34081;BME280;20358;50.272;19.026;2023-02-13T08:33:33;100180.50;;;2.14;69.96
34081;BME280;20358;50.272;19.026;2023-02-13T08:36:39;100180.50;;;2.14;70.71
34081;BME280;20358;50.272;19.026;2023-02-13T08:39:44;100192.72;;;2.09;69.64
34081;BME280;20358;50.272;19.026;2023-02-13T08:42:58;100178.81;;;2.13;69.98
34081;BME280;20358;50.272;19.026;2023-02-13T08:46:04;100171.66;;;2.27;70.56
34081;BME280;20358;50.272;19.026;2023-02-13T08:49:11;100175.00;;;2.38;71.07
34081;BME280;20358;50.272;19.026;2023-02-13T08:52:17;100171.41;;;2.48;69.92
34081;BME280;20358;50.272;19.026;2023-02-13T08:55:23;100165.31;;;2.49;70.40
34081;BME280;20358;50.272;19.026;2023-02-13T08:58:32;100181.66;;;2.60;70.08
34081;BME280;20358;50.272;19.026;2023-02-13T09:01:38;100170.38;;;2.60;69.70
34081;BME280;20358;50.272;19.026;2023-02-13T09:04:44;100167.75;;;2.61;70.11
34081;BME280;20358;50.272;19.026;2023-02-13T09:07:50;100158.09;;;2.69;70.44
34081;BME280;20358;50.272;19.026;2023-02-13T09:10:57;100100.56;;;2.16;69.96
34081;BME280;20358;50.272;19.026;2023-02-13T09:14:11;100173.03;;;2.57;69.69
34081;BME280;20358;50.272;19.026;2023-02-13T09:17:16;100166.22;;;2.45;70.57
34081;BME280;20358;50.272;19.026;2023-02-13T09:20:23;100172.38;;;2.39;70.39
34081;BME280;20358;50.272;19.026;2023-02-13T09:23:33;100172.28;;;2.49;71.46
34081;BME280;20358;50.272;19.026;2023-02-13T09:26:41;100185.22;;;2.56;71.33
34081;BME280;20358;50.272;19.026;2023-02-13T09:29:49;100183.63;;;2.41;71.33
34081;BME280;20358;50.272;19.026;2023-02-13T09:32:56;100185.41;;;2.41;72.28
34081;BME280;20358;50.272;19.026;2023-02-13T09:36:04;100181.03;;;2.43;71.86
34081;BME280;20358;50.272;19.026;2023-02-13T09:39:10;100180.38;;;2.26;71.21
34081;BME280;20358;50.272;19.026;2023-02-13T09:42:20;100180.25;;;2.35;72.63
34081;BME280;20358;50.272;19.026;2023-02-13T09:45:32;100178.44;;;2.43;73.29
34081;BME280;20358;50.272;19.026;2023-02-13T09:48:41;100179.16;;;2.53;72.40
34081;BME280;20358;50.272;19.026;2023-02-13T09:51:55;100178.50;;;2.37;72.84
34081;BME280;20358;50.272;19.026;2023-02-13T09:55:02;100175.91;;;2.35;72.81
34081;BME280;20358;50.272;19.026;2023-02-13T09:58:32;100175.03;;;2.35;73.13
34081;BME280;20358;50.272;19.026;2023-02-13T10:01:50;100162.97;;;2.28;72.37
34081;BME280;20358;50.272;19.026;2023-02-13T10:05:14;100160.28;;;2.35;73.33
34081;BME280;20358;50.272;19.026;2023-02-13T10:08:40;100155.78;;;2.45;73.52
34081;BME280;20358;50.272;19.026;2023-02-13T10:12:29;100159.09;;;2.59;73.11
34081;BME280;20358;50.272;19.026;2023-02-13T10:16:00;100162.53;;;2.61;72.40
34081;BME280;20358;50.272;19.026;2023-02-13T10:19:28;100142.75;;;2.47;73.21
34081;BME280;20358;50.272;19.026;2023-02-13T10:22:45;100156.53;;;2.55;72.62
34081;BME280;20358;50.272;19.026;2023-02-13T10:25:59;100149.59;;;2.52;72.43
34081;BME280;20358;50.272;19.026;2023-02-13T10:29:14;100114.88;;;2.50;73.06
34081;BME280;20358;50.272;19.026;2023-02-13T10:32:49;100127.53;;;2.77;72.32
34081;BME280;20358;50.272;19.026;2023-02-13T10:36:21;100126.75;;;2.72;71.32
34081;BME280;20358;50.272;19.026;2023-02-13T10:39:32;100123.97;;;2.83;71.35
34081;BME280;20358;50.272;19.026;2023-02-13T10:42:43;100125.66;;;2.85;71.46
34081;BME280;20358;50.272;19.026;2023-02-13T10:46:02;100111.84;;;2.80;71.24
34081;BME280;20358;50.272;19.026;2023-02-13T10:49:32;100122.13;;;2.89;72.13
34081;BME280;20358;50.272;19.026;2023-02-13T10:53:04;100110.94;;;2.83;72.24
34081;BME280;20358;50.272;19.026;2023-02-13T10:56:24;100110.84;;;2.86;71.20
34081;BME280;20358;50.272;19.026;2023-02-13T10:59:57;100115.22;;;2.85;71.41
34081;BME280;20358;50.272;19.026;2023-02-13T11:03:17;100105.75;;;2.78;71.92
34081;BME280;20358;50.272;19.026;2023-02-13T11:06:25;100098.72;;;2.85;72.67
34081;BME280;20358;50.272;19.026;2023-02-13T11:09:40;100075.31;;;2.80;71.92
34081;BME280;20358;50.272;19.026;2023-02-13T11:12:49;100093.38;;;2.92;70.97
34081;BME280;20358;50.272;19.026;2023-02-13T11:15:59;100103.75;;;2.95;73.07
34081;BME280;20358;50.272;19.026;2023-02-13T11:19:16;100030.28;;;2.66;72.25
34081;BME280;20358;50.272;19.026;2023-02-13T11:22:32;100089.44;;;3.19;72.26
34081;BME280;20358;50.272;19.026;2023-02-13T11:25:53;100093.75;;;3.22;72.04
34081;BME280;20358;50.272;19.026;2023-02-13T11:29:14;100091.78;;;3.33;72.09
34081;BME280;20358;50.272;19.026;2023-02-13T11:32:25;100086.38;;;3.45;71.46
34081;BME280;20358;50.272;19.026;2023-02-13T11:35:34;100078.56;;;3.43;71.12
34081;BME280;20358;50.272;19.026;2023-02-13T11:38:42;100074.19;;;3.44;70.39
34081;BME280;20358;50.272;19.026;2023-02-13T11:41:51;100063.66;;;3.50;71.14
34081;BME280;20358;50.272;19.026;2023-02-13T11:45:00;100071.47;;;3.50;70.64
34081;BME280;20358;50.272;19.026;2023-02-13T11:48:08;100075.00;;;3.47;71.03
34081;BME280;20358;50.272;19.026;2023-02-13T11:51:35;100068.19;;;3.39;71.10
34081;BME280;20358;50.272;19.026;2023-02-13T11:54:44;100066.66;;;3.27;72.16
34081;BME280;20358;50.272;19.026;2023-02-13T11:58:04;100062.34;;;3.25;72.48
34081;BME280;20358;50.272;19.026;2023-02-13T12:01:28;100058.97;;;3.20;72.40
34081;BME280;20358;50.272;19.026;2023-02-13T12:04:35;100059.78;;;3.23;72.16
34081;BME280;20358;50.272;19.026;2023-02-13T12:07:41;100071.97;;;3.23;73.40
34081;BME280;20358;50.272;19.026;2023-02-13T12:10:49;100071.28;;;3.12;72.86
34081;BME280;20358;50.272;19.026;2023-02-13T12:13:57;100065.19;;;3.13;73.02
34081;BME280;20358;50.272;19.026;2023-02-13T12:17:09;100057.34;;;3.13;73.14
34081;BME280;20358;50.272;19.026;2023-02-13T12:20:40;100051.31;;;3.11;72.45
34081;BME280;20358;50.272;19.026;2023-02-13T12:24:05;100050.47;;;3.09;73.08
34081;BME280;20358;50.272;19.026;2023-02-13T12:27:31;100054.88;;;3.05;73.88
34081;BME280;20358;50.272;19.026;2023-02-13T12:31:08;99965.38;;;2.48;73.66
34081;BME280;20358;50.272;19.026;2023-02-13T12:39:03;100051.63;;;2.91;73.17
34081;BME280;20358;50.272;19.026;2023-02-13T12:42:33;100050.69;;;2.93;74.05
34081;BME280;20358;50.272;19.026;2023-02-13T12:45:56;100057.72;;;2.91;73.77
34081;BME280;20358;50.272;19.026;2023-02-13T12:49:27;100041.31;;;2.85;74.43
34081;BME280;20358;50.272;19.026;2023-02-13T12:57:10;100039.00;;;2.65;74.56
34081;BME280;20358;50.272;19.026;2023-02-13T13:00:38;100044.03;;;2.77;73.91
34081;BME280;20358;50.272;19.026;2023-02-13T13:04:07;100031.78;;;2.82;73.56
34081;BME280;20358;50.272;19.026;2023-02-13T13:07:37;99998.94;;;2.69;74.16
34081;BME280;20358;50.272;19.026;2023-02-13T13:11:16;100042.00;;;2.94;74.47
34081;BME280;20358;50.272;19.026;2023-02-13T13:14:42;100045.50;;;2.93;73.83
34081;BME280;20358;50.272;19.026;2023-02-13T13:18:08;100057.91;;;2.79;73.60
34081;BME280;20358;50.272;19.026;2023-02-13T13:21:34;100060.53;;;2.79;73.80
34081;BME280;20358;50.272;19.026;2023-02-13T13:24:56;100045.75;;;2.78;75.47
34081;BME280;20358;50.272;19.026;2023-02-13T13:28:19;100050.19;;;2.73;75.18
34081;BME280;20358;50.272;19.026;2023-02-13T13:31:30;100058.16;;;2.64;74.92
34081;BME280;20358;50.272;19.026;2023-02-13T13:34:41;100056.59;;;2.54;76.36
34081;BME280;20358;50.272;19.026;2023-02-13T13:37:58;100044.28;;;2.62;76.56
34081;BME280;20358;50.272;19.026;2023-02-13T13:41:25;100054.75;;;2.59;75.87
34081;BME280;20358;50.272;19.026;2023-02-13T13:45:01;100056.50;;;2.57;75.62
34081;BME280;20358;50.272;19.026;2023-02-13T13:48:46;100055.03;;;2.41;74.10
34081;BME280;20358;50.272;19.026;2023-02-13T13:52:22;100040.16;;;2.48;74.60
34081;BME280;20358;50.272;19.026;2023-02-13T13:56:02;100067.34;;;2.30;74.52
34081;BME280;20358;50.272;19.026;2023-02-13T13:59:16;100051.63;;;2.36;74.93
34081;BME280;20358;50.272;19.026;2023-02-13T14:02:38;100047.19;;;2.44;74.83
34081;BME280;20358;50.272;19.026;2023-02-13T14:06:08;100054.88;;;2.52;75.62
34081;BME280;20358;50.272;19.026;2023-02-13T14:09:37;100054.88;;;2.50;73.91
34081;BME280;20358;50.272;19.026;2023-02-13T14:12:49;100066.22;;;2.48;73.15
34081;BME280;20358;50.272;19.026;2023-02-13T14:16:09;100027.19;;;2.43;73.29
34081;BME280;20358;50.272;19.026;2023-02-13T14:19:25;100044.34;;;2.59;74.11
34081;BME280;20358;50.272;19.026;2023-02-13T14:22:37;100055.72;;;2.52;72.45
34081;BME280;20358;50.272;19.026;2023-02-13T14:25:43;99890.78;;;1.20;71.49
34081;BME280;20358;50.272;19.026;2023-02-13T14:32:32;100053.34;;;2.37;72.51
34081;BME280;20358;50.272;19.026;2023-02-13T14:35:39;100042.91;;;2.37;73.54
34081;BME280;20358;50.272;19.026;2023-02-13T14:38:54;100046.28;;;2.45;71.76
34081;BME280;20358;50.272;19.026;2023-02-13T14:42:03;100041.06;;;2.45;71.88
34081;BME280;20358;50.272;19.026;2023-02-13T14:45:32;100038.59;;;2.36;72.49
34081;BME280;20358;50.272;19.026;2023-02-13T14:48:54;100023.66;;;2.46;72.80
34081;BME280;20358;50.272;19.026;2023-02-13T14:52:05;100052.31;;;2.47;72.40
34081;BME280;20358;50.272;19.026;2023-02-13T14:55:30;100049.00;;;2.37;71.04
34081;BME280;20358;50.272;19.026;2023-02-13T14:58:47;100043.03;;;2.31;70.71
34081;BME280;20358;50.272;19.026;2023-02-13T15:02:11;100029.09;;;2.32;71.32
34081;BME280;20358;50.272;19.026;2023-02-13T15:05:30;100032.59;;;2.31;70.60
34081;BME280;20358;50.272;19.026;2023-02-13T15:08:44;100045.56;;;2.35;69.90
34081;BME280;20358;50.272;19.026;2023-02-13T15:11:53;100025.56;;;2.36;70.30
34081;BME280;20358;50.272;19.026;2023-02-13T15:15:01;99983.38;;;2.08;71.02
34081;BME280;20358;50.272;19.026;2023-02-13T15:18:21;100021.34;;;2.27;70.41
34081;BME280;20358;50.272;19.026;2023-02-13T15:21:30;100025.81;;;2.18;68.50
34081;BME280;20358;50.272;19.026;2023-02-13T15:24:44;100024.13;;;2.14;68.93
34081;BME280;20358;50.272;19.026;2023-02-13T15:27:54;100025.09;;;2.05;68.80
34081;BME280;20358;50.272;19.026;2023-02-13T15:31:02;100017.44;;;1.95;69.72
34081;BME280;20358;50.272;19.026;2023-02-13T15:34:31;100009.63;;;1.93;70.23
34081;BME280;20358;50.272;19.026;2023-02-13T15:37:38;100032.53;;;1.67;70.09
34081;BME280;20358;50.272;19.026;2023-02-13T15:40:44;100027.34;;;1.65;70.60
34081;BME280;20358;50.272;19.026;2023-02-13T15:43:52;100034.25;;;1.68;70.96
34081;BME280;20358;50.272;19.026;2023-02-13T15:47:05;100028.19;;;1.67;71.33
34081;BME280;20358;50.272;19.026;2023-02-13T15:50:29;100016.97;;;1.62;70.13
34081;BME280;20358;50.272;19.026;2023-02-13T15:53:49;100022.97;;;1.67;71.98
34081;BME280;20358;50.272;19.026;2023-02-13T15:56:58;100033.41;;;1.64;71.33
34081;BME280;20358;50.272;19.026;2023-02-13T16:00:15;100021.34;;;1.60;71.66
34081;BME280;20358;50.272;19.026;2023-02-13T16:03:29;100028.34;;;1.55;71.49
34081;BME280;20358;50.272;19.026;2023-02-13T16:06:41;100033.66;;;1.43;72.24
34081;BME280;20358;50.272;19.026;2023-02-13T16:09:48;100040.63;;;1.41;72.83
34081;BME280;20358;50.272;19.026;2023-02-13T16:12:58;100040.59;;;1.44;73.11
34081;BME280;20358;50.272;19.026;2023-02-13T16:16:09;100047.56;;;1.42;72.59
34081;BME280;20358;50.272;19.026;2023-02-13T16:19:23;100032.00;;;1.38;71.41
34081;BME280;20358;50.272;19.026;2023-02-13T16:22:44;100032.94;;;1.31;71.88
34081;BME280;20358;50.272;19.026;2023-02-13T16:25:52;100047.75;;;1.27;71.67
34081;BME280;20358;50.272;19.026;2023-02-13T16:29:08;100025.16;;;1.29;71.18
34081;BME280;20358;50.272;19.026;2023-02-13T16:32:27;100046.13;;;1.14;71.91
34081;BME280;20358;50.272;19.026;2023-02-13T16:35:36;100036.53;;;1.19;70.38
34081;BME280;20358;50.272;19.026;2023-02-13T16:38:48;100039.94;;;1.26;71.62
34081;BME280;20358;50.272;19.026;2023-02-13T16:41:54;100031.16;;;1.33;71.27
34081;BME280;20358;50.272;19.026;2023-02-13T16:45:20;100032.97;;;1.28;70.25
34081;BME280;20358;50.272;19.026;2023-02-13T16:48:26;100042.44;;;1.33;70.29
34081;BME280;20358;50.272;19.026;2023-02-13T16:51:36;100060.66;;;1.35;69.90
34081;BME280;20358;50.272;19.026;2023-02-13T16:54:53;100054.50;;;1.42;70.61
34081;BME280;20358;50.272;19.026;2023-02-13T16:58:03;100043.31;;;1.34;69.74
34081;BME280;20358;50.272;19.026;2023-02-13T17:01:15;100023.34;;;1.37;70.21
34081;BME280;20358;50.272;19.026;2023-02-13T17:04:23;99998.25;;;1.29;70.11
34081;BME280;20358;50.272;19.026;2023-02-13T17:07:33;100014.75;;;1.28;70.52
34081;BME280;20358;50.272;19.026;2023-02-13T17:11:00;99987.19;;;1.07;70.30